createdAt,value
2022-08-27T00:02:39.740Z,1.48
2022-08-27T00:05:45.941Z,1.40
2022-08-27T00:08:54.762Z,1.35
2022-08-27T00:12:00.374Z,1.80
2022-08-27T00:15:05.634Z,1.73
2022-08-27T00:18:11.270Z,1.52
2022-08-27T00:21:16.729Z,2.00
2022-08-27T00:24:24.527Z,1.63
2022-08-27T00:27:29.516Z,1.77
2022-08-27T00:30:34.639Z,1.73
2022-08-27T00:33:40.160Z,1.90
2022-08-27T00:36:45.417Z,2.10
2022-08-27T00:39:53.747Z,2.70
2022-08-27T00:42:58.860Z,1.88
2022-08-27T00:46:07.770Z,1.83
2022-08-27T00:49:19.211Z,1.58
2022-08-27T00:52:28.765Z,1.48
2022-08-27T00:55:41.643Z,1.35
2022-08-27T00:58:49.350Z,1.58
2022-08-27T01:02:07.129Z,1.83
2022-08-27T01:05:15.521Z,1.23
2022-08-27T01:08:24.885Z,1.27
2022-08-27T01:11:33.353Z,1.48
2022-08-27T01:14:38.546Z,1.80
2022-08-27T01:17:44.233Z,1.55
2022-08-27T01:20:53.158Z,2.33
2022-08-27T01:24:05.257Z,1.80
2022-08-27T01:27:16.330Z,1.75
2022-08-27T01:30:23.698Z,1.65
2022-08-27T01:33:28.739Z,1.65
2022-08-27T01:36:33.918Z,1.58
2022-08-27T01:39:41.336Z,1.90
2022-08-27T01:42:52.072Z,1.65
2022-08-27T01:45:57.077Z,1.75
2022-08-27T01:49:02.008Z,1.95
2022-08-27T01:52:07.357Z,1.88
2022-08-27T01:55:15.410Z,3.17
2022-08-27T01:58:25.229Z,1.92
2022-08-27T02:01:30.383Z,1.85
2022-08-27T02:04:36.446Z,1.85
2022-08-27T02:07:42.791Z,1.98
2022-08-27T02:10:49.451Z,1.75
2022-08-27T02:13:57.025Z,3.00
2022-08-27T02:17:02.329Z,1.70
2022-08-27T02:20:09.393Z,2.05
2022-08-27T02:23:15.027Z,1.63
2022-08-27T02:26:20.333Z,1.98
2022-08-27T02:29:28.420Z,2.30
2022-08-27T02:32:33.457Z,1.75
2022-08-27T02:35:42.339Z,1.95
2022-08-27T02:38:47.679Z,2.15
2022-08-27T02:41:52.691Z,2.25
2022-08-27T02:45:00.300Z,1.80
2022-08-27T02:48:05.904Z,1.90
2022-08-27T02:51:11.429Z,2.22
2022-08-27T02:54:16.464Z,1.98
2022-08-27T02:57:22.337Z,1.92
2022-08-27T03:00:30.416Z,2.00
2022-08-27T03:03:35.488Z,2.75
2022-08-27T03:06:44.895Z,2.28
2022-08-27T03:09:50.007Z,2.42
2022-08-27T03:12:55.377Z,2.40
2022-08-27T03:16:03.119Z,3.72
2022-08-27T03:19:06.904Z,2.28
2022-08-27T03:22:12.952Z,1.80
2022-08-27T03:25:18.447Z,2.70
2022-08-27T03:28:25.955Z,2.60
2022-08-27T03:31:33.686Z,2.42
2022-08-27T03:34:38.736Z,2.20
2022-08-27T03:37:43.910Z,2.78
2022-08-27T03:40:49.301Z,2.63
2022-08-27T03:43:55.170Z,2.60
2022-08-27T03:47:04.236Z,2.50
2022-08-27T03:50:11.312Z,3.22
2022-08-27T03:53:17.150Z,2.75
2022-08-27T03:56:22.160Z,2.72
2022-08-27T03:59:27.133Z,3.25
2022-08-27T04:02:34.793Z,2.80
2022-08-27T04:05:39.797Z,2.47
2022-08-27T04:08:44.873Z,2.60
2022-08-27T04:11:49.928Z,2.78
2022-08-27T04:14:55.156Z,2.58
2022-08-27T04:18:02.766Z,3.03
2022-08-27T04:21:11.431Z,3.10
2022-08-27T04:24:16.806Z,2.92
2022-08-27T04:27:22.041Z,3.15
2022-08-27T04:30:27.030Z,2.72
2022-08-27T04:33:34.784Z,2.80
2022-08-27T04:36:39.937Z,3.13
2022-08-27T04:39:48.609Z,3.20
2022-08-27T04:42:55.625Z,3.45
2022-08-27T04:46:00.688Z,2.80
2022-08-27T04:49:10.549Z,2.80
2022-08-27T04:52:18.752Z,2.85
2022-08-27T04:55:24.265Z,2.83
2022-08-27T04:58:29.347Z,2.70
2022-08-27T05:01:34.810Z,3.58
2022-08-27T05:04:44.427Z,3.22
2022-08-27T05:07:49.459Z,3.10
2022-08-27T05:10:54.987Z,3.03
2022-08-27T05:13:59.983Z,2.95
2022-08-27T05:17:05.062Z,3.13
2022-08-27T05:20:14.174Z,3.38
2022-08-27T05:23:21.240Z,3.05
2022-08-27T05:26:26.607Z,3.75
2022-08-27T05:29:31.773Z,2.97
2022-08-27T05:32:36.736Z,3.10
2022-08-27T05:35:47.038Z,3.10
2022-08-27T05:38:52.577Z,4.00
2022-08-27T05:42:00.258Z,3.72
2022-08-27T05:45:05.316Z,3.30
2022-08-27T05:48:12.194Z,3.45
2022-08-27T05:51:25.662Z,4.18
2022-08-27T05:54:31.212Z,3.38
2022-08-27T05:57:36.165Z,3.80
2022-08-27T06:00:53.709Z,3.47
2022-08-27T06:03:58.700Z,2.90
2022-08-27T06:07:09.304Z,3.05
2022-08-27T06:10:15.293Z,3.40
2022-08-27T06:13:21.097Z,2.97
2022-08-27T06:16:26.805Z,3.22
2022-08-27T06:19:31.863Z,3.55
2022-08-27T06:22:39.559Z,3.75
2022-08-27T06:25:44.864Z,3.70
2022-08-27T06:28:51.705Z,3.67
2022-08-27T06:31:56.740Z,3.97
2022-08-27T06:35:01.842Z,3.45
2022-08-27T06:38:09.705Z,3.78
2022-08-27T06:41:23.571Z,3.25
2022-08-27T06:47:34.347Z,3.45
2022-08-27T06:50:43.616Z,2.60
2022-08-27T06:53:52.450Z,2.70
2022-08-27T06:57:00.961Z,2.13
2022-08-27T07:00:07.184Z,2.08
2022-08-27T07:03:12.649Z,1.90
2022-08-27T07:06:18.646Z,1.90
2022-08-27T07:09:26.244Z,1.88
2022-08-27T07:12:31.242Z,2.83
2022-08-27T07:15:36.324Z,1.52
2022-08-27T07:18:43.543Z,1.60
2022-08-27T07:21:48.565Z,1.15
2022-08-27T07:24:56.324Z,1.70
2022-08-27T07:28:02.333Z,1.58
2022-08-27T07:31:09.246Z,1.80
2022-08-27T07:34:14.433Z,1.45
2022-08-27T07:37:19.469Z,1.35
2022-08-27T07:40:27.338Z,1.27
2022-08-27T07:43:46.228Z,1.13
2022-08-27T07:46:51.450Z,1.33
2022-08-27T07:49:56.458Z,1.20
2022-08-27T07:53:01.563Z,1.33
2022-08-27T07:56:11.064Z,2.58
2022-08-27T07:59:16.096Z,1.40
2022-08-27T08:02:21.108Z,1.40
2022-08-27T08:05:26.177Z,1.10
2022-08-27T08:08:31.248Z,1.33
2022-08-27T08:11:38.887Z,1.70
2022-08-27T08:14:44.037Z,1.77
2022-08-27T08:17:49.794Z,1.27
2022-08-27T08:20:58.513Z,1.48
2022-08-27T08:24:04.241Z,1.63
2022-08-27T08:27:11.881Z,1.20
2022-08-27T08:30:17.966Z,1.65
2022-08-27T08:33:23.237Z,1.27
2022-08-27T08:36:28.201Z,1.13
2022-08-27T08:39:33.197Z,1.20
2022-08-27T08:42:50.773Z,1.33
2022-08-27T08:45:57.902Z,1.27
2022-08-27T08:49:10.688Z,1.40
2022-08-27T08:52:31.470Z,1.50
2022-08-27T08:55:44.038Z,1.50
2022-08-27T08:58:56.107Z,1.30
2022-08-27T09:02:01.956Z,1.02
2022-08-27T09:05:10.136Z,1.25
2022-08-27T09:08:41.138Z,1.58
2022-08-27T09:11:52.781Z,1.48
2022-08-27T09:15:05.050Z,1.25
2022-08-27T09:18:14.260Z,1.50
2022-08-27T09:21:28.680Z,1.50
2022-08-27T09:24:43.416Z,1.20
2022-08-27T09:27:49.813Z,1.48
2022-08-27T09:30:58.431Z,1.20
2022-08-27T09:34:03.496Z,1.58
2022-08-27T09:37:11.304Z,1.10
2022-08-27T09:40:25.303Z,1.20
2022-08-27T09:43:32.461Z,1.00
2022-08-27T09:46:40.282Z,1.48
2022-08-27T09:49:45.333Z,1.25
2022-08-27T09:52:56.530Z,1.23
2022-08-27T09:56:03.449Z,1.20
2022-08-27T09:59:10.875Z,1.30
2022-08-27T10:02:24.737Z,1.73
2022-08-27T10:05:32.836Z,1.50
2022-08-27T10:08:43.864Z,1.58
2022-08-27T10:12:08.376Z,1.60
2022-08-27T10:15:16.334Z,1.30
2022-08-27T10:18:37.652Z,1.52
2022-08-27T10:21:49.851Z,0.98
2022-08-27T10:25:05.585Z,1.30
2022-08-27T10:28:25.532Z,1.38
2022-08-27T10:31:40.262Z,1.60
2022-08-27T10:34:58.865Z,1.40
2022-08-27T10:38:13.453Z,2.35
2022-08-27T10:41:21.461Z,1.73
2022-08-27T10:44:47.140Z,1.75
2022-08-27T10:48:03.153Z,1.00
2022-08-27T10:51:18.127Z,0.90
2022-08-27T10:54:30.608Z,1.10
2022-08-27T10:58:14.056Z,1.02
2022-08-27T11:01:24.733Z,1.40
2022-08-27T11:04:33.562Z,1.58
2022-08-27T11:07:44.808Z,1.40
2022-08-27T11:10:52.117Z,6.13
2022-08-27T11:14:01.206Z,13.68
2022-08-27T11:17:12.268Z,9.35
2022-08-27T11:20:21.740Z,7.07
2022-08-27T11:23:35.260Z,16.50
2022-08-27T11:26:43.978Z,6.35
2022-08-27T11:30:00.059Z,4.57
2022-08-27T11:33:14.273Z,3.30
2022-08-27T11:36:38.217Z,2.33
2022-08-27T11:40:02.913Z,2.25
2022-08-27T11:43:13.638Z,1.73
2022-08-27T11:46:30.089Z,1.77
2022-08-27T11:49:44.398Z,1.40
2022-08-27T11:52:59.812Z,1.52
2022-08-27T11:56:18.931Z,1.17
2022-08-27T11:59:31.251Z,1.65
2022-08-27T12:02:36.598Z,1.30
2022-08-27T12:05:45.352Z,1.58
2022-08-27T12:08:50.398Z,1.58
2022-08-27T12:12:06.214Z,1.80
2022-08-27T12:15:17.810Z,1.48
2022-08-27T12:18:39.448Z,1.92
2022-08-27T12:21:54.484Z,1.20
2022-08-27T12:25:00.998Z,1.95
2022-08-27T12:28:10.600Z,1.33
2022-08-27T12:31:22.389Z,1.30
2022-08-27T12:34:29.613Z,1.27
2022-08-27T12:37:39.265Z,1.73
2022-08-27T12:40:50.285Z,1.52
2022-08-27T12:44:06.129Z,1.48
2022-08-27T12:47:17.221Z,1.30
2022-08-27T12:50:28.389Z,1.60
2022-08-27T12:53:50.731Z,1.17
2022-08-27T12:57:04.744Z,1.27
2022-08-27T13:03:32.070Z,1.40
2022-08-27T13:06:39.606Z,1.40
2022-08-27T13:09:44.781Z,1.08
2022-08-27T13:12:51.301Z,1.35
2022-08-27T13:16:03.979Z,1.58
2022-08-27T13:19:11.079Z,1.40
2022-08-27T13:22:24.947Z,1.80
2022-08-27T13:25:33.341Z,1.58
2022-08-27T13:28:44.801Z,1.55
2022-08-27T13:31:53.168Z,1.48
2022-08-27T13:34:58.766Z,1.48
2022-08-27T13:38:05.954Z,1.58
2022-08-27T13:41:12.866Z,1.20
2022-08-27T13:44:23.979Z,1.42
2022-08-27T13:47:32.712Z,1.58
2022-08-27T13:50:39.457Z,1.35
2022-08-27T13:54:01.565Z,1.33
2022-08-27T13:57:11.385Z,1.08
2022-08-27T14:00:20.913Z,1.45
2022-08-27T14:03:35.065Z,1.63
2022-08-27T14:09:54.587Z,1.45
2022-08-27T14:13:02.310Z,1.30
2022-08-27T14:16:17.901Z,1.23
2022-08-27T14:19:33.285Z,1.73
2022-08-27T14:22:41.563Z,1.30
2022-08-27T14:25:47.281Z,1.38
2022-08-27T14:28:52.305Z,1.13
2022-08-27T14:31:57.268Z,1.25
2022-08-27T14:35:04.869Z,1.65
2022-08-27T14:38:18.688Z,1.88
2022-08-27T14:41:25.002Z,1.52
2022-08-27T14:44:30.595Z,1.25
2022-08-27T14:47:36.487Z,1.27
2022-08-27T14:50:45.101Z,2.20
2022-08-27T14:53:51.340Z,1.05
2022-08-27T14:56:59.039Z,1.30
2022-08-27T15:00:04.090Z,1.30
2022-08-27T15:03:10.721Z,1.15
2022-08-27T15:06:22.043Z,1.38
2022-08-27T15:09:28.870Z,1.38
2022-08-27T15:12:34.018Z,1.25
2022-08-27T15:15:39.178Z,1.02
2022-08-27T15:18:44.270Z,1.20
2022-08-27T15:22:16.763Z,1.63
2022-08-27T15:25:22.998Z,1.38
2022-08-27T15:28:27.952Z,1.05
2022-08-27T15:31:33.033Z,1.30
2022-08-27T15:34:38.028Z,1.30
2022-08-27T15:37:46.433Z,1.65
2022-08-27T15:40:51.643Z,0.90
2022-08-27T15:43:56.737Z,1.50
2022-08-27T15:47:01.743Z,1.50
2022-08-27T15:50:07.845Z,1.20
2022-08-27T15:53:15.537Z,1.15
2022-08-27T15:56:20.693Z,1.35
2022-08-27T15:59:25.674Z,1.00
2022-08-27T16:02:30.656Z,0.77
2022-08-27T16:05:38.362Z,1.23
2022-08-27T16:08:46.785Z,1.10
2022-08-27T16:11:51.839Z,1.33
2022-08-27T16:14:56.879Z,0.93
2022-08-27T16:18:04.487Z,1.08
2022-08-27T16:21:09.542Z,2.15
2022-08-27T16:24:17.169Z,1.30
2022-08-27T16:27:22.118Z,1.90
2022-08-27T16:30:27.059Z,1.40
2022-08-27T16:33:31.999Z,1.25
2022-08-27T16:36:36.946Z,1.42
2022-08-27T16:39:44.523Z,1.52
2022-08-27T16:42:52.363Z,1.33
2022-08-27T16:45:59.623Z,1.30
2022-08-27T16:49:17.222Z,1.30
2022-08-27T16:52:23.947Z,1.25
2022-08-27T16:55:32.441Z,1.27
2022-08-27T16:58:37.825Z,1.35
2022-08-27T17:01:43.761Z,1.30
2022-08-27T17:05:07.224Z,1.35
2022-08-27T17:08:16.521Z,1.15
2022-08-27T17:11:28.159Z,0.90
2022-08-27T17:14:37.933Z,1.40
2022-08-27T17:17:43.176Z,1.02
2022-08-27T17:20:48.154Z,0.90
2022-08-27T17:23:55.806Z,1.05
2022-08-27T17:27:03.410Z,1.13
2022-08-27T17:30:10.215Z,0.93
2022-08-27T17:33:21.947Z,1.65
2022-08-27T17:36:27.457Z,1.30
2022-08-27T17:39:32.763Z,1.20
2022-08-27T17:42:40.746Z,1.30
2022-08-27T17:45:45.805Z,1.23
2022-08-27T17:48:50.930Z,1.00
2022-08-27T17:52:00.031Z,1.50
2022-08-27T17:55:05.034Z,0.80
2022-08-27T17:58:13.122Z,1.20
2022-08-27T18:01:20.637Z,1.27
2022-08-27T18:04:26.200Z,1.48
2022-08-27T18:07:31.585Z,1.25
2022-08-27T18:10:37.682Z,1.20
2022-08-27T18:13:45.393Z,1.35
2022-08-27T18:16:50.458Z,1.48
2022-08-27T18:19:55.433Z,1.58
2022-08-27T18:23:01.730Z,1.50
2022-08-27T18:26:07.177Z,1.50
2022-08-27T18:29:17.495Z,1.65
2022-08-27T18:32:22.410Z,0.95
2022-08-27T18:35:29.580Z,1.90
2022-08-27T18:38:34.809Z,1.63
2022-08-27T18:41:39.829Z,0.95
2022-08-27T18:44:48.441Z,1.10
2022-08-27T18:47:54.550Z,1.38
2022-08-27T18:51:02.519Z,1.48
2022-08-27T18:54:08.122Z,1.45
2022-08-27T18:57:13.180Z,1.50
2022-08-27T19:00:22.169Z,1.08
2022-08-27T19:03:29.966Z,1.45
2022-08-27T19:06:35.626Z,2.22
2022-08-27T19:09:40.635Z,1.40
2022-08-27T19:12:46.905Z,1.42
2022-08-27T19:15:57.361Z,1.33
2022-08-27T19:19:02.397Z,1.83
2022-08-27T19:22:08.099Z,2.03
2022-08-27T19:25:13.800Z,1.52
2022-08-27T19:28:20.249Z,2.05
2022-08-27T19:31:29.164Z,1.38
2022-08-27T19:34:34.186Z,1.65
2022-08-27T19:37:44.796Z,1.80
2022-08-27T19:40:52.954Z,1.50
2022-08-27T19:43:58.004Z,2.13
2022-08-27T19:47:05.713Z,2.50
2022-08-27T19:50:11.603Z,1.60
2022-08-27T19:53:16.571Z,2.10
2022-08-27T19:56:21.609Z,2.88
2022-08-27T19:59:26.533Z,3.45
2022-08-27T20:02:34.126Z,2.20
2022-08-27T20:05:39.290Z,3.35
2022-08-27T20:08:44.270Z,3.13
2022-08-27T20:11:50.768Z,2.97
2022-08-27T20:14:55.926Z,2.45
2022-08-27T20:18:03.657Z,2.95
2022-08-27T20:21:09.158Z,2.38
2022-08-27T20:24:14.263Z,2.85
2022-08-27T20:27:19.257Z,3.05
2022-08-27T20:30:27.632Z,2.88
2022-08-27T20:33:35.271Z,3.15
2022-08-27T20:36:40.350Z,3.67
2022-08-27T20:40:05.432Z,2.70
2022-08-27T20:43:10.434Z,2.90
2022-08-27T20:46:16.349Z,2.97
2022-08-27T20:49:24.155Z,2.33
2022-08-27T20:52:29.087Z,3.20
2022-08-27T20:55:35.304Z,3.05
2022-08-27T20:58:52.731Z,3.65
2022-08-27T21:01:57.798Z,4.07
2022-08-27T21:05:10.906Z,4.22
2022-08-27T21:08:16.666Z,3.47
2022-08-27T21:11:21.707Z,4.53
2022-08-27T21:14:26.702Z,3.35
2022-08-27T21:17:33.021Z,3.33
2022-08-27T21:20:41.096Z,4.00
2022-08-27T21:23:46.130Z,3.05
2022-08-27T21:26:51.358Z,4.13
2022-08-27T21:29:56.338Z,3.60
2022-08-27T21:33:01.364Z,3.90
2022-08-27T21:36:12.151Z,4.53
2022-08-27T21:39:17.513Z,4.03
2022-08-27T21:42:23.276Z,3.28
2022-08-27T21:45:28.691Z,4.05
2022-08-27T21:48:33.622Z,3.97
2022-08-27T21:51:41.170Z,3.83
2022-08-27T21:54:46.183Z,3.78
2022-08-27T21:57:51.363Z,3.95
2022-08-27T22:00:56.442Z,4.88
2022-08-27T22:04:02.038Z,3.63
2022-08-27T22:07:09.749Z,4.78
2022-08-27T22:10:14.774Z,3.88
2022-08-27T22:13:19.730Z,3.55
2022-08-27T22:16:24.707Z,4.13
2022-08-27T22:19:29.783Z,4.80
2022-08-27T22:22:37.393Z,3.60
2022-08-27T22:25:44.093Z,4.32
2022-08-27T22:28:49.085Z,4.18
2022-08-27T22:31:54.282Z,4.38
2022-08-27T22:34:59.350Z,4.28
2022-08-27T22:38:07.301Z,3.50
2022-08-27T22:41:13.952Z,4.38
2022-08-27T22:44:18.995Z,5.13
2022-08-27T22:47:23.934Z,4.20
2022-08-27T22:50:29.422Z,4.68
2022-08-27T22:53:39.361Z,4.25
2022-08-27T22:56:45.065Z,4.78
2022-08-27T22:59:50.048Z,3.63
2022-08-27T23:02:55.684Z,4.32
2022-08-27T23:06:00.769Z,3.63
2022-08-27T23:09:28.326Z,4.22
2022-08-27T23:12:34.274Z,4.22
2022-08-27T23:15:44.323Z,4.97
2022-08-27T23:18:49.344Z,5.05
2022-08-27T23:21:54.556Z,4.30
2022-08-27T23:25:14.617Z,4.18
2022-08-27T23:28:20.113Z,5.38
2022-08-27T23:31:25.801Z,4.38
2022-08-27T23:34:32.023Z,4.20
2022-08-27T23:37:37.101Z,5.10
2022-08-27T23:40:45.515Z,4.10
2022-08-27T23:43:50.465Z,4.60
2022-08-27T23:46:55.430Z,4.80
2022-08-27T23:50:00.391Z,4.80
2022-08-27T23:53:06.098Z,4.55
2022-08-27T23:56:13.728Z,4.63
2022-08-27T23:59:18.748Z,4.47
